createdAt,value
2023-02-24T00:02:26.616Z,47.20
2023-02-24T00:04:57.482Z,31.13
2023-02-24T00:07:30.699Z,37.20
2023-02-24T00:09:59.772Z,31.27
2023-02-24T00:12:28.807Z,58.20
2023-02-24T00:14:57.422Z,47.93
2023-02-24T00:17:30.591Z,52.37
2023-02-24T00:19:59.252Z,46.10
2023-02-24T00:22:28.575Z,25.60
2023-02-24T00:24:57.163Z,34.20
2023-02-24T00:27:25.731Z,41.83
2023-02-24T00:29:54.414Z,40.17
2023-02-24T00:32:23.734Z,46.83
2023-02-24T00:34:53.929Z,41.27
2023-02-24T00:37:24.226Z,44.73
2023-02-24T00:39:57.602Z,32.57
2023-02-24T00:42:27.176Z,49.13
2023-02-24T00:44:55.829Z,45.67
2023-02-24T00:47:24.554Z,39.90
2023-02-24T00:49:57.548Z,45.10
2023-02-24T00:52:28.034Z,37.07
2023-02-24T00:54:57.852Z,38.30
2023-02-24T00:57:27.116Z,47.03
2023-02-24T01:00:01.194Z,36.37
2023-02-24T01:02:30.252Z,31.83
2023-02-24T01:05:01.361Z,29.60
2023-02-24T01:07:30.070Z,26.27
2023-02-24T01:10:01.227Z,26.07
2023-02-24T01:12:49.980Z,32.23
2023-02-24T01:15:20.781Z,25.27
2023-02-24T01:17:49.768Z,25.67
2023-02-24T01:20:20.253Z,20.47
2023-02-24T01:22:53.095Z,44.97
2023-02-24T01:25:21.797Z,36.63
2023-02-24T01:27:50.892Z,40.63
2023-02-24T01:30:20.711Z,32.57
2023-02-24T01:32:49.577Z,47.20
2023-02-24T01:35:20.324Z,28.17
2023-02-24T01:37:49.547Z,42.70
2023-02-24T01:40:21.747Z,42.87
2023-02-24T01:42:51.880Z,34.03
2023-02-24T01:45:25.074Z,35.30
2023-02-24T01:47:58.152Z,26.47
2023-02-24T01:50:29.437Z,34.27
2023-02-24T01:53:02.139Z,40.53
2023-02-24T01:55:33.654Z,42.30
2023-02-24T01:58:06.778Z,39.77
2023-02-24T02:00:39.298Z,36.93
2023-02-24T02:03:13.411Z,27.63
2023-02-24T02:05:45.389Z,28.47
2023-02-24T02:08:15.047Z,37.13
2023-02-24T02:10:45.380Z,27.90
2023-02-24T02:13:16.730Z,39.13
2023-02-24T02:15:56.966Z,33.00
2023-02-24T02:18:36.932Z,34.47
2023-02-24T02:21:48.372Z,35.70
2023-02-24T02:24:48.578Z,32.43
2023-02-24T02:28:08.561Z,32.30
2023-02-24T02:31:08.436Z,26.83
2023-02-24T02:34:03.078Z,33.17
2023-02-24T02:36:35.552Z,47.83
2023-02-24T02:39:15.477Z,31.97
2023-02-24T02:41:53.248Z,29.80
2023-02-24T02:44:25.449Z,35.90
2023-02-24T02:47:01.852Z,24.80
2023-02-24T02:49:37.514Z,26.57
2023-02-24T02:52:14.306Z,26.47
2023-02-24T02:54:49.866Z,26.87
2023-02-24T02:57:21.832Z,26.27
2023-02-24T02:59:56.638Z,31.07
2023-02-24T03:02:30.905Z,24.53
2023-02-24T03:05:05.022Z,17.53
2023-02-24T03:07:40.557Z,32.17
2023-02-24T03:10:20.927Z,30.00
2023-02-24T03:12:53.754Z,25.83
2023-02-24T03:15:26.203Z,26.53
2023-02-24T03:18:01.806Z,27.90
2023-02-24T03:20:37.118Z,23.43
2023-02-24T03:23:10.632Z,31.47
2023-02-24T03:25:45.158Z,21.57
2023-02-24T03:28:19.658Z,25.43
2023-02-24T03:30:55.536Z,28.20
2023-02-24T03:33:30.391Z,22.30
2023-02-24T03:36:02.132Z,24.23
2023-02-24T03:38:33.718Z,32.43
2023-02-24T03:41:03.307Z,20.43
2023-02-24T03:43:38.508Z,24.60
2023-02-24T03:46:07.348Z,26.40
2023-02-24T03:48:39.500Z,23.20
2023-02-24T03:51:16.099Z,20.80
2023-02-24T03:53:58.250Z,28.00
2023-02-24T03:56:34.782Z,21.17
2023-02-24T03:59:16.057Z,23.00
2023-02-24T04:01:58.000Z,22.40
2023-02-24T04:04:33.310Z,24.80
2023-02-24T04:07:10.730Z,33.83
2023-02-24T04:09:47.045Z,27.47
2023-02-24T04:12:20.029Z,30.27
2023-02-24T04:14:53.328Z,22.80
2023-02-24T04:17:27.846Z,26.17
2023-02-24T04:20:01.075Z,27.80
2023-02-24T04:22:33.176Z,20.07
2023-02-24T04:25:03.383Z,34.23
2023-02-24T04:27:32.043Z,30.90
2023-02-24T04:30:05.014Z,29.90
2023-02-24T04:32:34.566Z,22.83
2023-02-24T04:35:06.282Z,27.40
2023-02-24T04:37:37.342Z,15.93
2023-02-24T04:40:11.241Z,26.77
2023-02-24T04:42:46.564Z,22.67
2023-02-24T04:45:17.053Z,26.17
2023-02-24T04:47:49.580Z,22.53
2023-02-24T04:50:24.104Z,16.63
2023-02-24T04:52:56.590Z,25.67
2023-02-24T04:55:29.623Z,26.47
2023-02-24T04:57:59.057Z,28.70
2023-02-24T05:00:33.629Z,35.07
2023-02-24T05:03:03.322Z,28.87
2023-02-24T05:05:34.854Z,21.37
2023-02-24T05:08:07.421Z,31.17
2023-02-24T05:10:39.107Z,29.13
2023-02-24T05:13:09.253Z,26.17
2023-02-24T05:15:42.132Z,42.13
2023-02-24T05:18:14.234Z,30.23
2023-02-24T05:21:03.103Z,23.33
2023-02-24T05:23:34.734Z,32.33
2023-02-24T05:26:08.857Z,33.33
2023-02-24T05:28:38.688Z,20.53
2023-02-24T05:31:10.273Z,28.30
2023-02-24T05:33:40.283Z,26.90
2023-02-24T05:36:10.656Z,29.90
2023-02-24T05:38:41.005Z,32.97
2023-02-24T05:41:15.456Z,34.10
2023-02-24T05:43:48.241Z,32.30
2023-02-24T05:46:17.185Z,24.90
2023-02-24T05:48:47.128Z,34.03
2023-02-24T05:51:17.246Z,28.67
2023-02-24T05:53:48.624Z,31.57
2023-02-24T05:56:19.293Z,36.50
2023-02-24T05:58:50.219Z,28.57
2023-02-24T06:01:19.525Z,24.60
2023-02-24T06:03:49.068Z,29.33
2023-02-24T06:06:18.465Z,24.90
2023-02-24T06:08:50.835Z,28.30
2023-02-24T06:11:21.446Z,29.23
2023-02-24T06:13:50.518Z,54.67
2023-02-24T06:16:20.069Z,51.57
2023-02-24T06:18:51.224Z,48.60
2023-02-24T06:21:20.748Z,37.37
2023-02-24T06:23:50.789Z,38.43
2023-02-24T06:26:21.761Z,23.63
2023-02-24T06:28:54.190Z,27.97
2023-02-24T06:31:23.230Z,25.53
2023-02-24T06:33:53.688Z,23.40
2023-02-24T06:36:23.447Z,32.00
2023-02-24T06:38:54.371Z,32.63
2023-02-24T06:41:23.118Z,29.83
2023-02-24T06:43:53.086Z,24.97
2023-02-24T06:46:21.598Z,31.63
2023-02-24T06:48:50.236Z,42.50
2023-02-24T06:51:19.537Z,28.00
2023-02-24T06:53:49.228Z,29.23
2023-02-24T06:56:20.003Z,30.67
2023-02-24T06:58:50.763Z,52.73
2023-02-24T07:01:22.424Z,34.87
2023-02-24T07:04:18.009Z,31.27
2023-02-24T07:06:49.785Z,26.93
2023-02-24T07:09:20.037Z,24.27
2023-02-24T07:11:52.600Z,44.77
2023-02-24T07:14:22.647Z,30.70
2023-02-24T07:16:54.804Z,21.80
2023-02-24T07:19:25.751Z,30.00
2023-02-24T07:22:00.429Z,20.33
2023-02-24T07:24:36.199Z,28.20
2023-02-24T07:27:09.546Z,25.00
2023-02-24T07:29:41.226Z,28.00
2023-02-24T07:32:12.040Z,26.23
2023-02-24T07:34:41.012Z,32.40
2023-02-24T07:37:09.968Z,21.07
2023-02-24T07:39:39.898Z,28.20
2023-02-24T07:42:12.580Z,29.90
2023-02-24T07:44:42.733Z,29.10
2023-02-24T07:47:11.280Z,27.43
2023-02-24T07:49:41.231Z,21.43
2023-02-24T07:52:12.276Z,27.37
2023-02-24T07:54:41.161Z,19.80
2023-02-24T07:57:14.367Z,24.73
2023-02-24T07:59:47.728Z,26.50
2023-02-24T08:02:18.576Z,25.70
2023-02-24T08:04:50.626Z,19.03
2023-02-24T08:07:25.505Z,30.27
2023-02-24T08:10:24.417Z,23.93
2023-02-24T08:12:56.051Z,25.60
2023-02-24T08:15:26.898Z,19.57
2023-02-24T08:17:59.790Z,20.93
2023-02-24T08:20:36.226Z,20.90
2023-02-24T08:23:07.561Z,20.83
2023-02-24T08:25:44.570Z,19.23
2023-02-24T08:28:14.723Z,16.57
2023-02-24T08:30:46.626Z,21.40
2023-02-24T08:33:20.149Z,18.47
2023-02-24T08:35:58.096Z,22.60
2023-02-24T08:38:40.036Z,29.63
2023-02-24T08:41:17.940Z,20.30
2023-02-24T08:43:49.953Z,12.60
2023-02-24T08:46:25.777Z,16.27
2023-02-24T08:48:57.798Z,14.77
2023-02-24T08:51:29.946Z,19.23
2023-02-24T08:54:01.264Z,18.90
2023-02-24T08:56:34.619Z,19.57
2023-02-24T08:59:07.642Z,11.87
2023-02-24T09:02:04.147Z,18.53
2023-02-24T09:04:35.513Z,18.17
2023-02-24T09:07:11.584Z,14.73
2023-02-24T09:09:42.577Z,17.17
2023-02-24T09:12:22.205Z,16.57
2023-02-24T09:14:56.395Z,11.87
2023-02-24T09:17:40.367Z,12.97
2023-02-24T09:20:44.562Z,12.80
2023-02-24T09:23:20.386Z,14.70
2023-02-24T09:25:50.883Z,13.10
2023-02-24T09:28:24.870Z,14.47
2023-02-24T09:30:57.361Z,11.33
2023-02-24T09:33:28.932Z,11.50
2023-02-24T09:36:11.665Z,14.77
2023-02-24T09:38:58.353Z,13.30
2023-02-24T09:41:34.690Z,13.07
2023-02-24T09:44:07.817Z,15.73
2023-02-24T09:46:54.318Z,11.97
2023-02-24T09:49:28.252Z,10.07
2023-02-24T09:52:09.373Z,8.70
2023-02-24T09:54:37.909Z,11.63
2023-02-24T09:57:17.863Z,13.40
2023-02-24T10:00:01.584Z,8.40
2023-02-24T10:02:44.827Z,10.43
2023-02-24T10:05:27.537Z,14.77
2023-02-24T10:08:00.637Z,12.77
2023-02-24T10:10:36.329Z,13.80
2023-02-24T10:13:15.128Z,13.10
2023-02-24T10:15:59.285Z,11.73
2023-02-24T10:18:34.931Z,13.63
2023-02-24T10:21:15.733Z,13.80
2023-02-24T10:24:05.845Z,13.60
2023-02-24T10:26:59.593Z,10.50
2023-02-24T10:29:43.584Z,13.80
2023-02-24T10:32:24.233Z,10.77
2023-02-24T10:34:55.282Z,9.83
2023-02-24T10:37:29.512Z,9.90
2023-02-24T10:40:00.162Z,14.03
2023-02-24T10:42:32.843Z,13.77
2023-02-24T10:45:18.207Z,11.17
2023-02-24T10:47:57.125Z,14.23
2023-02-24T10:50:32.591Z,8.77
2023-02-24T10:53:26.724Z,9.83
2023-02-24T10:56:23.646Z,21.23
2023-02-24T10:59:20.994Z,13.20
2023-02-24T11:01:59.665Z,19.33
2023-02-24T11:04:44.361Z,14.37
2023-02-24T11:07:24.981Z,12.30
2023-02-24T11:10:13.958Z,15.13
2023-02-24T11:13:10.023Z,14.80
2023-02-24T11:16:01.482Z,12.87
2023-02-24T11:18:32.073Z,14.67
2023-02-24T11:21:02.475Z,16.50
2023-02-24T11:23:36.336Z,16.60
2023-02-24T11:26:13.355Z,12.67
2023-02-24T11:29:13.438Z,13.53
2023-02-24T11:32:09.102Z,18.70
2023-02-24T11:34:49.711Z,11.83
2023-02-24T11:37:29.162Z,20.87
2023-02-24T11:40:04.560Z,13.50
2023-02-24T11:42:38.252Z,14.37
2023-02-24T11:45:14.251Z,12.70
2023-02-24T11:47:45.515Z,14.50
2023-02-24T11:50:46.300Z,12.10
2023-02-24T11:53:26.483Z,15.10
2023-02-24T11:56:03.267Z,13.10
2023-02-24T11:58:41.583Z,16.00
2023-02-24T12:01:16.991Z,17.10
2023-02-24T12:03:53.951Z,9.27
2023-02-24T12:06:28.900Z,13.73
2023-02-24T12:09:07.875Z,12.90
2023-02-24T12:11:51.793Z,16.43
2023-02-24T12:14:28.694Z,20.03
2023-02-24T12:17:07.970Z,15.83
2023-02-24T12:19:42.927Z,18.77
2023-02-24T12:22:16.337Z,15.73
2023-02-24T12:24:51.758Z,14.03
2023-02-24T12:27:33.600Z,16.70
2023-02-24T12:30:38.813Z,17.00
2023-02-24T12:33:20.481Z,17.93
2023-02-24T12:35:57.637Z,20.23
2023-02-24T12:38:44.306Z,18.90
2023-02-24T12:41:37.317Z,17.03
2023-02-24T12:44:20.626Z,21.33
2023-02-24T12:46:58.381Z,17.03
2023-02-24T12:49:45.877Z,18.53
2023-02-24T12:52:22.172Z,19.43
2023-02-24T12:54:56.685Z,20.53
2023-02-24T12:57:32.252Z,23.53
2023-02-24T13:00:10.536Z,23.63
2023-02-24T13:02:54.022Z,15.23
2023-02-24T13:05:27.270Z,16.70
2023-02-24T13:08:12.570Z,23.90
2023-02-24T13:10:48.806Z,20.67
2023-02-24T13:13:26.362Z,18.57
2023-02-24T13:15:58.438Z,19.27
2023-02-24T13:18:31.408Z,22.90
2023-02-24T13:21:08.221Z,23.87
2023-02-24T13:23:38.188Z,25.27
2023-02-24T13:26:07.154Z,21.03
2023-02-24T13:28:38.706Z,22.00
2023-02-24T13:31:11.356Z,25.77
2023-02-24T13:33:41.909Z,22.50
2023-02-24T13:36:16.852Z,25.63
2023-02-24T13:38:48.608Z,25.47
2023-02-24T13:41:36.779Z,19.57
2023-02-24T13:44:27.004Z,22.97
2023-02-24T13:47:21.606Z,30.00
2023-02-24T13:50:03.378Z,30.03
2023-02-24T13:52:45.209Z,30.13
2023-02-24T13:55:29.576Z,28.53
2023-02-24T13:58:22.184Z,31.97
2023-02-24T14:01:06.574Z,28.57
2023-02-24T14:03:39.680Z,36.43
2023-02-24T14:06:15.918Z,32.20
2023-02-24T14:08:47.291Z,30.30
2023-02-24T14:11:18.709Z,33.43
2023-02-24T14:13:50.729Z,50.87
2023-02-24T14:16:25.923Z,34.80
2023-02-24T14:18:58.525Z,28.33
2023-02-24T14:21:29.368Z,64.37
2023-02-24T14:24:00.994Z,32.83
2023-02-24T14:26:32.545Z,28.83
2023-02-24T14:29:03.593Z,42.13
2023-02-24T14:31:32.478Z,30.73
2023-02-24T14:34:04.201Z,25.57
2023-02-24T14:36:37.264Z,39.80
2023-02-24T14:39:12.028Z,35.60
2023-02-24T14:41:41.183Z,36.53
2023-02-24T14:44:26.439Z,27.43
2023-02-24T14:46:57.023Z,28.97
2023-02-24T14:49:31.108Z,36.60
2023-02-24T14:52:07.255Z,41.30
2023-02-24T14:54:46.180Z,31.93
2023-02-24T14:57:18.770Z,31.97
2023-02-24T14:59:50.590Z,23.43
2023-02-24T15:02:25.042Z,25.80
2023-02-24T15:04:58.922Z,32.10
2023-02-24T15:07:30.268Z,26.43
2023-02-24T15:09:59.612Z,27.77
2023-02-24T15:12:33.212Z,24.67
2023-02-24T15:15:05.649Z,27.57
2023-02-24T15:17:35.339Z,26.10
2023-02-24T15:20:25.702Z,27.13
2023-02-24T15:22:54.684Z,23.77
2023-02-24T15:25:37.152Z,25.60
2023-02-24T15:28:25.716Z,23.90
2023-02-24T15:31:18.055Z,28.20
2023-02-24T15:33:54.809Z,31.67
2023-02-24T15:36:27.600Z,27.83
2023-02-24T15:38:59.478Z,28.20
2023-02-24T15:41:39.010Z,35.80
2023-02-24T15:44:07.950Z,29.23
2023-02-24T15:46:37.837Z,26.07
2023-02-24T15:49:07.236Z,34.93
2023-02-24T15:51:41.163Z,26.83
2023-02-24T15:54:14.048Z,23.90
2023-02-24T15:56:43.421Z,24.67
2023-02-24T15:59:15.479Z,22.37
2023-02-24T16:01:44.460Z,20.77
2023-02-24T16:04:13.488Z,15.73
2023-02-24T16:06:54.775Z,12.07
2023-02-24T16:09:32.220Z,13.07
2023-02-24T16:12:01.840Z,7.13
2023-02-24T16:14:30.826Z,16.50
2023-02-24T16:17:00.711Z,16.53
2023-02-24T16:19:30.193Z,13.80
2023-02-24T16:22:00.456Z,9.60
2023-02-24T16:24:29.606Z,7.00
2023-02-24T16:26:58.342Z,9.43
2023-02-24T16:29:27.225Z,7.23
2023-02-24T16:31:56.344Z,8.97
2023-02-24T16:34:27.751Z,10.17
2023-02-24T16:36:56.783Z,13.97
2023-02-24T16:39:27.252Z,12.97
2023-02-24T16:41:56.217Z,16.67
2023-02-24T16:44:25.523Z,19.27
2023-02-24T16:46:54.311Z,12.33
2023-02-24T16:49:23.332Z,20.13
2023-02-24T16:51:52.232Z,19.90
2023-02-24T16:54:29.441Z,14.90
2023-02-24T16:57:00.150Z,16.37
2023-02-24T16:59:29.152Z,20.07
2023-02-24T17:01:59.783Z,14.77
2023-02-24T17:04:28.610Z,19.60
2023-02-24T17:06:57.694Z,16.30
2023-02-24T17:09:29.646Z,16.47
2023-02-24T17:12:03.172Z,21.10
2023-02-24T17:14:32.008Z,17.70
2023-02-24T17:17:00.987Z,22.37
2023-02-24T17:19:29.839Z,14.97
2023-02-24T17:21:58.746Z,14.93
2023-02-24T17:24:28.736Z,19.57
2023-02-24T17:26:59.928Z,13.57
2023-02-24T17:29:30.296Z,17.70
2023-02-24T17:31:59.418Z,13.13
2023-02-24T17:34:28.355Z,19.33
2023-02-24T17:36:57.192Z,12.07
2023-02-24T17:39:26.126Z,14.37
2023-02-24T17:41:56.594Z,15.23
2023-02-24T17:44:26.509Z,14.80
2023-02-24T17:46:56.958Z,15.67
2023-02-24T17:49:25.896Z,15.93
2023-02-24T17:51:54.920Z,9.33
2023-02-24T17:54:23.813Z,14.93
2023-02-24T17:56:53.398Z,12.50
2023-02-24T17:59:22.092Z,11.40
2023-02-24T18:01:51.023Z,13.00
2023-02-24T18:04:21.390Z,11.23
2023-02-24T18:06:50.857Z,10.37
2023-02-24T18:09:19.730Z,11.17
2023-02-24T18:11:48.679Z,10.07
2023-02-24T18:14:17.636Z,12.53
2023-02-24T18:16:46.675Z,10.73
2023-02-24T18:19:15.685Z,7.10
2023-02-24T18:21:46.163Z,9.13
2023-02-24T18:24:15.174Z,13.13
2023-02-24T18:26:44.633Z,10.77
2023-02-24T18:29:13.875Z,9.97
2023-02-24T18:31:44.183Z,13.03
2023-02-24T18:34:19.377Z,7.90
2023-02-24T18:36:50.533Z,12.13
2023-02-24T18:39:21.814Z,8.83
2023-02-24T18:41:50.980Z,9.40
2023-02-24T18:44:23.136Z,10.53
2023-02-24T18:46:52.270Z,7.50
2023-02-24T18:49:21.780Z,10.67
2023-02-24T18:51:57.110Z,9.70
2023-02-24T18:54:26.880Z,8.23
2023-02-24T18:56:56.163Z,8.23
2023-02-24T18:59:28.016Z,17.60
2023-02-24T19:01:57.669Z,26.33
2023-02-24T19:04:29.185Z,33.70
2023-02-24T19:07:00.548Z,38.30
2023-02-24T19:09:29.483Z,27.00
2023-02-24T19:11:58.585Z,15.43
2023-02-24T19:14:27.685Z,16.57
2023-02-24T19:16:56.465Z,16.33
2023-02-24T19:19:25.327Z,17.90
2023-02-24T19:21:54.305Z,15.87
2023-02-24T19:24:24.627Z,12.73
2023-02-24T19:26:55.102Z,15.40
2023-02-24T19:29:24.797Z,10.93
2023-02-24T19:31:57.951Z,14.83
2023-02-24T19:34:27.216Z,18.73
2023-02-24T19:36:56.827Z,16.80
2023-02-24T19:39:27.328Z,29.63
2023-02-24T19:41:57.650Z,21.20
2023-02-24T19:44:27.844Z,24.47
2023-02-24T19:46:56.798Z,17.67
2023-02-24T19:49:25.879Z,26.87
2023-02-24T19:51:56.005Z,16.77
2023-02-24T19:54:28.326Z,20.43
2023-02-24T19:56:58.745Z,23.80
2023-02-24T19:59:27.707Z,39.20
2023-02-24T20:01:56.900Z,36.00
2023-02-24T20:04:26.903Z,30.10
2023-02-24T20:06:55.829Z,25.00
2023-02-24T20:09:24.916Z,22.60
2023-02-24T20:12:02.212Z,18.47
2023-02-24T20:14:31.993Z,17.50
2023-02-24T20:17:00.782Z,22.20
2023-02-24T20:19:30.200Z,23.40
2023-02-24T20:21:59.543Z,20.60
2023-02-24T20:24:30.985Z,20.10
2023-02-24T20:27:06.785Z,17.23
2023-02-24T20:29:36.394Z,19.13
2023-02-24T20:32:08.458Z,23.40
2023-02-24T20:34:39.125Z,21.00
2023-02-24T20:37:12.681Z,21.93
2023-02-24T20:39:41.739Z,22.73
2023-02-24T20:42:13.271Z,25.60
2023-02-24T20:44:45.032Z,29.93
2023-02-24T20:47:14.630Z,21.93
2023-02-24T20:49:44.843Z,27.07
2023-02-24T20:52:14.811Z,22.70
2023-02-24T20:54:46.095Z,24.80
2023-02-24T20:57:19.995Z,23.37
2023-02-24T21:00:03.515Z,27.50
2023-02-24T21:02:34.244Z,23.97
2023-02-24T21:05:04.631Z,24.63
2023-02-24T21:07:33.883Z,26.30
2023-02-24T21:10:11.102Z,25.37
2023-02-24T21:12:41.938Z,32.33
2023-02-24T21:15:20.998Z,25.73
2023-02-24T21:17:53.065Z,26.13
2023-02-24T21:20:24.266Z,32.53
2023-02-24T21:22:53.996Z,33.47
2023-02-24T21:25:23.578Z,29.10
2023-02-24T21:27:56.758Z,30.10
2023-02-24T21:30:29.243Z,25.90
2023-02-24T21:32:58.018Z,21.50
2023-02-24T21:35:28.582Z,36.20
2023-02-24T21:37:58.209Z,32.80
2023-02-24T21:40:29.356Z,30.97
2023-02-24T21:43:02.043Z,38.53
2023-02-24T21:45:40.842Z,30.63
2023-02-24T21:48:09.685Z,23.97
2023-02-24T21:50:48.916Z,32.90
2023-02-24T21:53:24.078Z,33.07
2023-02-24T21:56:03.439Z,25.00
2023-02-24T21:58:36.268Z,27.50
2023-02-24T22:01:11.666Z,23.90
2023-02-24T22:03:40.955Z,34.23
2023-02-24T22:06:12.120Z,32.50
2023-02-24T22:08:45.882Z,20.20
2023-02-24T22:11:17.006Z,29.93
2023-02-24T22:13:49.516Z,27.33
2023-02-24T22:16:21.748Z,28.93
2023-02-24T22:18:52.225Z,40.17
2023-02-24T22:21:25.568Z,21.13
2023-02-24T22:23:57.407Z,31.03
2023-02-24T22:26:27.152Z,22.83
2023-02-24T22:28:57.950Z,32.87
2023-02-24T22:31:31.945Z,34.60
2023-02-24T22:34:05.748Z,35.17
2023-02-24T22:36:37.094Z,28.83
2023-02-24T22:39:09.559Z,31.77
2023-02-24T22:41:41.851Z,27.80
2023-02-24T22:44:14.454Z,24.47
2023-02-24T22:46:43.792Z,26.40
2023-02-24T22:49:13.026Z,23.47
2023-02-24T22:51:42.399Z,29.50
2023-02-24T22:54:11.609Z,35.13
2023-02-24T22:56:40.703Z,20.90
2023-02-24T22:59:09.470Z,30.63
2023-02-24T23:01:40.835Z,28.43
2023-02-24T23:04:14.151Z,31.27
2023-02-24T23:06:45.869Z,19.23
2023-02-24T23:09:19.899Z,29.97
2023-02-24T23:11:49.549Z,28.33
2023-02-24T23:14:18.567Z,20.27
2023-02-24T23:16:56.039Z,35.43
2023-02-24T23:19:25.015Z,25.00
2023-02-24T23:21:56.492Z,20.17
2023-02-24T23:24:25.869Z,25.47
2023-02-24T23:26:57.791Z,17.63
2023-02-24T23:29:27.833Z,21.40
2023-02-24T23:31:58.516Z,21.83
2023-02-24T23:34:27.210Z,16.40
2023-02-24T23:36:55.874Z,22.30
2023-02-24T23:39:24.633Z,24.40
2023-02-24T23:41:57.584Z,20.97
2023-02-24T23:44:26.570Z,18.63
2023-02-24T23:46:58.303Z,22.20
2023-02-24T23:49:42.483Z,18.43
2023-02-24T23:52:16.237Z,32.37
2023-02-24T23:54:45.385Z,18.00
2023-02-24T23:57:13.972Z,20.47
2023-02-24T23:59:42.950Z,18.00
